Time;durP1;ratioP1;P1;durP2;ratioP2;P2;SDS_P1;SDS_P2;PMS_P1;PMS_P2;Temp;Humidity;BMP_temperature;BMP_pressure;BME280_temperature;BME280_humidity;BME280_pressure;Samples;Min_cycle;Max_cycle;Signal;HPM_P1;HPM_P2
2023/09/02 00:00:07;;;;;;;3.00;2.80;;;16.80;99.90;;;;;;5045702;28;20201;-61
2023/09/02 00:02:37;;;;;;;2.57;2.47;;;16.80;99.90;;;;;;5046687;28;20193;-61
2023/09/02 00:05:06;;;;;;;4.13;3.00;;;16.80;99.90;;;;;;5048067;28;20227;-61
2023/09/02 00:07:34;;;;;;;3.60;3.50;;;16.70;99.90;;;;;;5044683;28;20570;-61
2023/09/02 00:10:03;;;;;;;6.87;3.50;;;16.70;99.90;;;;;;5043276;28;20227;-61
2023/09/02 00:12:32;;;;;;;3.40;3.20;;;16.70;99.90;;;;;;5044526;28;20862;-61
2023/09/02 00:15:00;;;;;;;4.40;3.13;;;16.70;99.90;;;;;;5046315;28;20204;-61
2023/09/02 00:17:28;;;;;;;3.57;3.27;;;16.60;99.90;;;;;;5045794;28;20217;-61
2023/09/02 00:19:58;;;;;;;5.97;3.83;;;16.70;99.90;;;;;;5045449;28;20558;-62
2023/09/02 00:22:28;;;;;;;3.53;3.33;;;16.70;99.90;;;;;;5043456;28;20299;-62
2023/09/02 00:24:56;;;;;;;3.87;3.30;;;16.70;99.90;;;;;;5046004;28;20220;-61
2023/09/02 00:27:24;;;;;;;3.93;3.50;;;16.60;99.90;;;;;;5048456;28;20248;-63
2023/09/02 00:29:53;;;;;;;3.70;3.40;;;16.60;99.90;;;;;;5050503;28;20312;-63
2023/09/02 00:32:22;;;;;;;3.90;3.30;;;16.60;99.90;;;;;;5045854;28;20572;-64
2023/09/02 00:34:51;;;;;;;4.03;3.83;;;16.50;99.90;;;;;;5041437;28;20220;-63
2023/09/02 00:37:20;;;;;;;4.80;3.40;;;16.50;99.90;;;;;;5054905;28;20223;-63
2023/09/02 00:39:49;;;;;;;3.67;3.30;;;16.50;99.90;;;;;;5053492;28;20315;-63
2023/09/02 00:42:20;;;;;;;4.13;3.80;;;16.40;99.90;;;;;;5060323;28;20587;-63
2023/09/02 00:44:48;;;;;;;4.30;3.90;;;16.50;99.90;;;;;;5055200;28;20188;-63
2023/09/02 00:47:17;;;;;;;5.23;4.73;;;16.40;99.90;;;;;;5052817;28;20217;-63
2023/09/02 00:49:45;;;;;;;5.83;5.43;;;16.40;99.90;;;;;;5056833;28;20216;-63
2023/09/02 00:52:13;;;;;;;4.87;4.47;;;16.50;99.90;;;;;;5053354;28;20244;-64
2023/09/02 00:54:43;;;;;;;4.57;4.27;;;16.40;99.90;;;;;;5055179;28;20623;-62
2023/09/02 00:57:11;;;;;;;5.23;4.93;;;16.40;99.90;;;;;;5053148;28;20531;-63
2023/09/02 00:59:40;;;;;;;6.00;5.20;;;16.40;99.90;;;;;;5054337;28;20189;-63
2023/09/02 01:02:09;;;;;;;5.20;4.67;;;16.40;99.90;;;;;;5053879;28;20216;-63
2023/09/02 01:04:38;;;;;;;4.77;4.33;;;16.40;99.90;;;;;;5050403;28;20225;-64
2023/09/02 01:07:07;;;;;;;5.60;5.00;;;16.40;99.90;;;;;;5056525;28;20231;-63
2023/09/02 01:09:35;;;;;;;6.30;5.80;;;16.30;99.90;;;;;;5053117;28;20770;-63
2023/09/02 01:12:06;;;;;;;6.53;5.80;;;16.40;99.90;;;;;;5053330;28;20204;-63
2023/09/02 01:14:34;;;;;;;6.20;5.70;;;16.50;99.90;;;;;;5051459;28;20575;-63
2023/09/02 01:17:03;;;;;;;6.10;4.93;;;16.40;99.90;;;;;;5057567;28;20652;-63
2023/09/02 01:19:32;;;;;;;5.90;5.50;;;16.40;99.90;;;;;;5050523;28;20223;-63
2023/09/02 01:22:15;;;;;;;6.03;5.53;;;16.40;99.90;;;;;;5049990;28;20572;-63
2023/09/02 01:25:17;;;;;;;6.80;5.17;;;16.30;99.90;;;;;;5050900;28;20326;-64
2023/09/02 01:27:50;;;;;;;5.00;4.70;;;16.30;99.90;;;;;;5039014;28;20717;-63
2023/09/02 01:30:20;;;;;;;5.63;5.13;;;16.30;99.90;;;;;;5048366;28;20235;-63
2023/09/02 01:32:54;;;;;;;5.10;4.70;;;16.30;99.90;;;;;;5048987;28;20197;-63
2023/09/02 01:35:27;;;;;;;4.70;4.30;;;16.30;99.90;;;;;;5052283;28;20208;-63
2023/09/02 01:37:58;;;;;;;4.07;3.60;;;16.20;99.90;;;;;;5047651;28;20277;-63
2023/09/02 01:40:28;;;;;;;7.90;4.13;;;16.20;99.90;;;;;;5048701;28;20308;-63
2023/09/02 01:43:00;;;;;;;5.17;4.87;;;16.10;99.90;;;;;;5055766;28;20244;-63
2023/09/02 01:45:31;;;;;;;5.07;4.73;;;16.10;99.90;;;;;;5053915;28;20220;-63
2023/09/02 01:48:00;;;;;;;7.13;4.67;;;16.10;99.90;;;;;;5052306;28;20203;-62
2023/09/02 01:50:30;;;;;;;5.17;4.53;;;16.10;99.90;;;;;;5056542;28;20204;-64
2023/09/02 01:53:00;;;;;;;5.00;4.70;;;16.10;99.90;;;;;;5054659;28;20708;-64
2023/09/02 01:55:28;;;;;;;6.20;4.83;;;16.00;99.90;;;;;;5057124;28;20318;-63
2023/09/02 01:57:59;;;;;;;4.80;4.40;;;16.00;99.90;;;;;;5055522;28;20234;-63
2023/09/02 02:00:27;;;;;;;4.23;3.97;;;16.00;99.90;;;;;;5054903;28;20217;-64
2023/09/02 02:02:56;;;;;;;4.83;4.20;;;16.00;99.90;;;;;;5047870;28;20223;-63
2023/09/02 02:05:32;;;;;;;6.53;4.20;;;15.90;99.90;;;;;;5054182;28;20260;-63
2023/09/02 02:08:05;;;;;;;4.80;4.40;;;15.80;99.90;;;;;;5054645;28;20215;-64
2023/09/02 02:10:36;;;;;;;4.80;4.50;;;15.80;99.90;;;;;;5053823;28;20714;-63
2023/09/02 02:13:06;;;;;;;5.67;4.60;;;15.80;99.90;;;;;;5053652;28;20227;-63
2023/09/02 02:15:34;;;;;;;5.63;5.13;;;15.80;99.90;;;;;;5055644;28;20254;-63
2023/09/02 02:18:03;;;;;;;5.80;5.27;;;15.80;99.90;;;;;;5057066;28;20224;-62
2023/09/02 02:20:40;;;;;;;5.30;4.90;;;15.80;99.90;;;;;;5053240;28;20192;-63
2023/09/02 02:23:09;;;;;;;7.17;4.90;;;15.70;99.90;;;;;;5056262;28;20221;-63
2023/09/02 02:25:37;;;;;;;5.17;4.53;;;15.70;99.90;;;;;;5055595;28;20253;-63
2023/09/02 02:28:07;;;;;;;4.47;4.10;;;15.70;99.90;;;;;;5038389;28;20231;-64
2023/09/02 02:30:35;;;;;;;4.90;4.50;;;15.70;99.90;;;;;;5056068;28;20581;-63
2023/09/02 02:33:05;;;;;;;4.80;4.50;;;15.70;99.90;;;;;;5051958;28;20193;-63
2023/09/02 02:35:33;;;;;;;4.63;4.17;;;15.70;99.90;;;;;;5055827;28;20196;-63
2023/09/02 02:38:02;;;;;;;5.07;4.27;;;15.60;99.90;;;;;;5055907;28;20318;-63
2023/09/02 02:40:31;;;;;;;4.80;4.30;;;15.60;99.90;;;;;;5055767;28;20219;-63
2023/09/02 02:43:00;;;;;;;5.00;4.60;;;15.60;99.90;;;;;;5057610;28;21175;-63
2023/09/02 02:45:29;;;;;;;4.80;4.50;;;15.60;99.90;;;;;;5054251;28;20578;-63
2023/09/02 02:47:58;;;;;;;4.70;4.30;;;15.60;99.90;;;;;;5052613;28;20594;-62
2023/09/02 02:50:26;;;;;;;8.37;4.03;;;15.50;99.90;;;;;;5051821;28;20546;-64
2023/09/02 02:52:55;;;;;;;4.33;4.13;;;15.50;99.90;;;;;;5049116;28;20225;-63
2023/09/02 02:55:23;;;;;;;4.00;3.63;;;15.50;99.90;;;;;;5051547;28;20228;-63
2023/09/02 02:57:52;;;;;;;6.70;4.00;;;15.40;99.90;;;;;;5052962;28;20215;-63
2023/09/02 03:00:20;;;;;;;11.17;5.00;;;15.40;99.90;;;;;;5051246;28;20227;-63
2023/09/02 03:02:52;;;;;;;5.83;5.37;;;15.50;99.90;;;;;;5058415;28;20193;-64
2023/09/02 03:05:21;;;;;;;9.10;4.83;;;15.50;99.90;;;;;;5054444;28;20244;-63
2023/09/02 03:07:50;;;;;;;4.97;4.50;;;15.50;99.90;;;;;;5055241;28;20248;-64
2023/09/02 03:10:19;;;;;;;10.00;4.50;;;15.60;99.90;;;;;;5054542;28;20250;-64
2023/09/02 03:12:47;;;;;;;5.77;4.13;;;15.60;99.90;;;;;;5060902;28;20226;-64
2023/09/02 03:15:15;;;;;;;5.10;4.30;;;15.70;99.90;;;;;;5054932;28;20209;-63
2023/09/02 03:17:44;;;;;;;4.70;4.40;;;15.70;99.90;;;;;;5053801;28;20238;-64
2023/09/02 03:20:14;;;;;;;5.60;5.20;;;15.70;99.90;;;;;;5030819;28;20300;-64
2023/09/02 03:22:42;;;;;;;5.10;4.60;;;15.80;99.90;;;;;;5051120;28;20219;-63
2023/09/02 03:25:11;;;;;;;4.70;4.30;;;15.80;99.90;;;;;;5054103;28;20307;-64
2023/09/02 03:27:40;;;;;;;5.80;4.73;;;15.90;99.90;;;;;;5054220;28;20701;-63
2023/09/02 03:30:08;;;;;;;5.27;4.80;;;15.90;99.90;;;;;;5054178;28;20211;-62
2023/09/02 03:32:37;;;;;;;5.37;4.97;;;15.90;99.90;;;;;;5056260;28;20200;-64
2023/09/02 03:35:07;;;;;;;6.40;5.90;;;16.00;99.90;;;;;;5050696;28;20220;-64
2023/09/02 03:37:37;;;;;;;6.20;5.60;;;16.00;99.90;;;;;;5048249;28;20242;-64
2023/09/02 03:40:07;;;;;;;6.97;5.93;;;16.10;99.90;;;;;;5056665;28;20241;-63
2023/09/02 03:42:35;;;;;;;6.50;5.90;;;16.10;99.90;;;;;;5049689;28;20610;-64
2023/09/02 03:45:04;;;;;;;6.90;6.30;;;16.10;99.90;;;;;;5050810;28;20548;-62
2023/09/02 03:47:33;;;;;;;8.43;5.87;;;16.20;99.90;;;;;;5050238;28;20192;-64
2023/09/02 03:50:02;;;;;;;7.37;6.07;;;16.20;99.90;;;;;;5051491;28;20231;-63
2023/09/02 03:52:30;;;;;;;6.33;5.47;;;16.20;99.90;;;;;;5051719;28;20220;-64
2023/09/02 03:55:00;;;;;;;6.07;5.53;;;16.30;99.90;;;;;;5045913;28;20221;-64
2023/09/02 03:57:28;;;;;;;6.47;5.97;;;16.30;99.90;;;;;;5046326;28;20259;-62
2023/09/02 03:59:57;;;;;;;6.70;6.20;;;16.30;99.90;;;;;;5049472;28;20197;-62
2023/09/02 04:02:25;;;;;;;5.70;5.30;;;16.30;99.90;;;;;;5049757;28;20231;-64
2023/09/02 04:04:53;;;;;;;8.80;6.43;;;16.30;99.90;;;;;;5051199;28;20216;-60
2023/09/02 04:07:21;;;;;;;7.40;6.10;;;16.30;99.90;;;;;;5055676;28;20209;-63
2023/09/02 04:09:50;;;;;;;7.93;6.03;;;16.40;99.90;;;;;;5050522;28;20645;-64
2023/09/02 04:12:20;;;;;;;6.90;6.30;;;16.30;99.90;;;;;;5053730;28;20231;-62
2023/09/02 04:14:48;;;;;;;8.40;6.73;;;16.30;99.90;;;;;;5050865;28;20658;-64
2023/09/02 04:17:17;;;;;;;10.40;6.43;;;16.30;99.90;;;;;;5052965;28;20224;-63
2023/09/02 04:19:45;;;;;;;6.33;5.80;;;16.30;99.90;;;;;;5052368;28;20223;-63
2023/09/02 04:22:15;;;;;;;7.57;6.10;;;16.30;99.90;;;;;;5050860;28;20334;-63
2023/09/02 04:24:43;;;;;;;7.57;6.77;;;16.30;99.90;;;;;;5051524;28;20310;-63
2023/09/02 04:27:12;;;;;;;7.03;6.00;;;16.20;99.90;;;;;;5043008;28;20195;-64
2023/09/02 04:29:41;;;;;;;10.50;6.90;;;16.20;99.90;;;;;;5052928;28;20285;-63
2023/09/02 04:32:11;;;;;;;9.07;6.50;;;16.10;99.90;;;;;;5044797;28;20232;-63
2023/09/02 04:34:40;;;;;;;8.03;7.03;;;16.10;99.90;;;;;;5051975;28;20270;-63
2023/09/02 04:37:08;;;;;;;7.30;6.60;;;16.00;99.90;;;;;;5048180;28;20235;-64
2023/09/02 04:39:40;;;;;;;7.63;6.93;;;16.00;99.90;;;;;;5050866;28;20770;-63
2023/09/02 04:42:08;;;;;;;7.63;6.93;;;16.00;99.90;;;;;;5046667;28;20197;-62
2023/09/02 04:44:36;;;;;;;7.60;6.90;;;16.00;99.90;;;;;;5054772;28;20213;-64
2023/09/02 04:47:10;;;;;;;6.97;6.27;;;16.00;99.90;;;;;;5047928;28;20271;-64
2023/09/02 04:49:38;;;;;;;6.23;5.77;;;15.90;99.90;;;;;;5051150;28;20219;-64
2023/09/02 04:52:06;;;;;;;7.07;6.50;;;15.90;99.90;;;;;;5049191;28;20233;-64
2023/09/02 04:54:35;;;;;;;6.40;5.80;;;15.90;99.90;;;;;;5050411;28;20231;-64
2023/09/02 04:57:04;;;;;;;7.07;5.90;;;15.80;99.90;;;;;;5032315;28;20252;-62
2023/09/02 04:59:32;;;;;;;7.20;6.50;;;15.80;99.90;;;;;;5052802;28;20196;-63
2023/09/02 05:02:00;;;;;;;6.53;6.03;;;15.90;99.90;;;;;;5046392;28;20223;-64
2023/09/02 05:04:30;;;;;;;14.83;6.03;;;15.80;99.90;;;;;;5050306;28;20215;-63
2023/09/02 05:06:58;;;;;;;6.40;5.90;;;15.80;99.90;;;;;;5049078;28;20573;-64
2023/09/02 05:09:27;;;;;;;7.67;6.43;;;15.80;99.90;;;;;;5043233;28;20333;-63
2023/09/02 05:11:55;;;;;;;10.77;7.90;;;15.80;99.90;;;;;;5049325;28;20228;-63
2023/09/02 05:14:23;;;;;;;9.43;7.00;;;15.80;99.90;;;;;;5048336;28;20219;-63
2023/09/02 05:16:51;;;;;;;9.83;7.67;;;15.80;99.90;;;;;;5048393;28;20227;-63
2023/09/02 05:19:20;;;;;;;7.63;6.90;;;15.80;99.90;;;;;;5047519;28;20219;-63
2023/09/02 05:21:50;;;;;;;11.10;7.77;;;15.80;99.90;;;;;;5045934;28;20230;-63
2023/09/02 05:24:18;;;;;;;8.97;7.63;;;15.90;99.90;;;;;;5050639;28;20227;-63
2023/09/02 05:26:46;;;;;;;7.87;6.80;;;15.90;99.90;;;;;;5050477;28;20864;-64
2023/09/02 05:29:17;;;;;;;9.60;8.03;;;15.90;99.90;;;;;;5046555;28;20224;-63
2023/09/02 05:31:45;;;;;;;10.50;8.07;;;16.00;99.90;;;;;;5044355;28;20225;-63
2023/09/02 05:34:14;;;;;;;9.30;7.27;;;16.00;99.90;;;;;;5050315;28;20241;-62
2023/09/02 05:36:42;;;;;;;7.83;7.03;;;16.00;99.90;;;;;;5051833;28;20230;-63
2023/09/02 05:39:12;;;;;;;8.40;7.60;;;16.00;99.90;;;;;;5048336;28;20196;-62
2023/09/02 05:41:40;;;;;;;7.53;6.63;;;16.10;99.90;;;;;;5049034;28;20197;-63
2023/09/02 05:44:08;;;;;;;9.67;6.83;;;16.10;99.90;;;;;;5051326;28;20217;-62
2023/09/02 05:46:37;;;;;;;7.43;6.73;;;16.10;99.90;;;;;;5051583;28;20227;-63
2023/09/02 05:49:05;;;;;;;9.50;6.50;;;16.20;99.90;;;;;;5051669;28;20223;-64
2023/09/02 05:51:33;;;;;;;10.13;6.60;;;16.20;99.90;;;;;;5050564;28;20212;-63
2023/09/02 05:54:02;;;;;;;7.13;6.40;;;16.30;99.90;;;;;;5049890;28;20188;-62
2023/09/02 05:56:33;;;;;;;8.30;6.73;;;16.40;99.90;;;;;;5050383;28;20185;-63
2023/09/02 05:59:02;;;;;;;9.03;7.00;;;16.40;99.90;;;;;;5046698;28;20311;-63
2023/09/02 06:01:30;;;;;;;9.50;7.07;;;16.50;99.90;;;;;;5049101;28;20240;-63
2023/09/02 06:03:59;;;;;;;6.87;6.23;;;16.50;99.90;;;;;;5052398;28;20232;-63
2023/09/02 06:06:27;;;;;;;10.03;7.10;;;16.50;99.90;;;;;;5042136;28;20227;-63
2023/09/02 06:08:55;;;;;;;7.67;6.93;;;16.60;99.90;;;;;;5052623;28;20189;-63
2023/09/02 06:11:24;;;;;;;7.57;6.67;;;16.70;99.90;;;;;;5044633;28;20229;-64
2023/09/02 06:13:54;;;;;;;7.83;6.83;;;16.70;99.90;;;;;;5055045;28;20220;-63
2023/09/02 06:16:22;;;;;;;11.03;7.43;;;16.70;99.90;;;;;;5052637;28;20663;-63
2023/09/02 06:18:50;;;;;;;10.90;7.83;;;16.80;99.90;;;;;;5051821;28;20236;-63
2023/09/02 06:21:18;;;;;;;10.03;7.40;;;16.80;99.90;;;;;;5052553;28;20274;-63
2023/09/02 06:23:47;;;;;;;9.23;7.57;;;16.80;99.90;;;;;;5045573;28;20197;-63
2023/09/02 06:26:15;;;;;;;9.87;8.40;;;16.90;99.90;;;;;;5051052;28;20225;-63
2023/09/02 06:28:45;;;;;;;10.67;7.97;;;17.00;99.90;;;;;;5053640;28;20229;-64
2023/09/02 06:31:15;;;;;;;9.67;7.07;;;17.00;99.90;;;;;;5042791;28;20232;-63
2023/09/02 06:33:44;;;;;;;11.83;6.33;;;17.10;99.90;;;;;;5055325;28;20273;-63
2023/09/02 06:36:13;;;;;;;8.13;6.53;;;17.20;99.90;;;;;;5053951;28;20200;-63
2023/09/02 06:38:41;;;;;;;8.97;7.77;;;17.30;99.90;;;;;;5054258;28;20197;-64
2023/09/02 06:41:11;;;;;;;11.80;8.07;;;17.40;99.90;;;;;;5050728;28;20216;-63
2023/09/02 06:43:40;;;;;;;9.47;7.37;;;17.50;99.90;;;;;;5055931;28;20216;-63
2023/09/02 06:46:10;;;;;;;12.20;7.87;;;17.50;99.90;;;;;;5055659;28;20299;-63
2023/09/02 06:48:40;;;;;;;11.23;6.10;;;17.50;99.90;;;;;;5052516;28;20316;-63
2023/09/02 06:51:08;;;;;;;10.83;7.77;;;17.60;99.90;;;;;;5041945;28;20203;-63
2023/09/02 06:53:37;;;;;;;13.00;7.17;;;17.70;99.90;;;;;;5051097;28;20220;-63
2023/09/02 06:56:08;;;;;;;7.83;7.03;;;17.80;99.90;;;;;;5055346;28;20224;-63
2023/09/02 06:58:37;;;;;;;7.73;6.33;;;17.90;99.90;;;;;;5055286;28;20247;-63
2023/09/02 07:01:06;;;;;;;8.00;5.90;;;18.00;99.90;;;;;;5055521;28;20703;-63
2023/09/02 07:03:34;;;;;;;9.50;6.43;;;18.10;99.90;;;;;;5052728;28;20224;-63
2023/09/02 07:06:08;;;;;;;11.57;8.40;;;18.20;99.90;;;;;;5037170;28;20232;-62
2023/09/02 07:08:36;;;;;;;7.07;6.37;;;18.30;99.90;;;;;;5055936;28;20192;-63
2023/09/02 07:11:06;;;;;;;6.43;5.63;;;18.30;99.90;;;;;;5054886;28;20567;-63
2023/09/02 07:13:35;;;;;;;7.57;6.13;;;18.40;99.90;;;;;;5054956;28;20232;-63
2023/09/02 07:16:04;;;;;;;12.90;6.60;;;18.50;99.90;;;;;;5055182;28;20220;-63
2023/09/02 07:18:33;;;;;;;8.17;5.30;;;18.50;99.90;;;;;;5055322;28;20738;-63
2023/09/02 07:21:02;;;;;;;9.80;6.07;;;18.50;99.90;;;;;;5054864;28;20197;-62
2023/09/02 07:23:33;;;;;;;12.60;6.50;;;18.50;99.90;;;;;;5055482;28;20639;-63
2023/09/02 07:26:04;;;;;;;6.47;5.47;;;18.50;99.90;;;;;;5051591;28;20315;-64
2023/09/02 07:28:36;;;;;;;7.07;5.23;;;18.60;99.90;;;;;;5053965;28;20220;-63
2023/09/02 07:31:05;;;;;;;7.63;5.47;;;18.70;99.90;;;;;;5052205;28;20248;-64
2023/09/02 07:33:34;;;;;;;5.77;5.27;;;18.80;99.90;;;;;;5055107;28;20221;-63
2023/09/02 07:36:07;;;;;;;7.20;6.00;;;18.90;99.90;;;;;;5054641;28;20349;-62
2023/09/02 07:38:38;;;;;;;8.13;6.70;;;19.00;99.90;;;;;;5045600;28;20192;-63
2023/09/02 07:41:09;;;;;;;8.10;5.90;;;19.10;99.90;;;;;;5043651;28;20216;-63
2023/09/02 07:43:38;;;;;;;6.90;6.23;;;19.20;99.90;;;;;;5054726;28;20222;-63
2023/09/02 07:46:06;;;;;;;7.80;6.30;;;19.40;99.90;;;;;;5036865;28;20225;-64
2023/09/02 07:48:35;;;;;;;6.93;5.70;;;19.50;99.90;;;;;;5054511;28;20626;-63
2023/09/02 07:51:03;;;;;;;8.57;5.70;;;19.60;99.90;;;;;;5054410;28;20190;-63
2023/09/02 07:53:31;;;;;;;13.97;6.93;;;19.70;99.90;;;;;;5055253;28;20668;-63
2023/09/02 07:56:01;;;;;;;9.03;6.20;;;19.80;99.90;;;;;;5054064;28;20233;-63
2023/09/02 07:58:30;;;;;;;8.10;6.13;;;19.90;99.90;;;;;;5054363;28;20683;-63
2023/09/02 08:00:58;;;;;;;12.97;6.97;;;20.10;99.90;;;;;;5054757;28;20589;-64
2023/09/02 08:03:26;;;;;;;13.10;7.07;;;20.20;99.90;;;;;;5058756;28;20584;-63
2023/09/02 08:05:55;;;;;;;10.97;6.47;;;20.30;99.90;;;;;;5054981;28;20236;-63
2023/09/02 08:08:23;;;;;;;6.10;5.40;;;20.40;99.90;;;;;;5054594;28;20562;-63
2023/09/02 08:11:03;;;;;;;6.40;5.10;;;20.60;99.90;;;;;;5054161;28;20606;-63
2023/09/02 08:13:32;;;;;;;8.57;5.97;;;20.80;99.90;;;;;;5054211;28;20781;-63
2023/09/02 08:16:04;;;;;;;6.30;5.70;;;20.90;99.90;;;;;;5054358;28;20231;-63
2023/09/02 08:18:33;;;;;;;9.57;6.37;;;21.00;99.90;;;;;;5053980;28;20222;-63
2023/09/02 08:21:01;;;;;;;13.63;7.80;;;21.10;99.90;;;;;;5045884;28;20201;-63
2023/09/02 08:23:30;;;;;;;7.30;6.60;;;21.10;99.90;;;;;;5054034;28;20181;-64
2023/09/02 08:25:58;;;;;;;9.43;6.30;;;21.10;99.90;;;;;;5060774;28;20574;-63
2023/09/02 08:28:27;;;;;;;8.57;6.20;;;21.20;99.90;;;;;;5060486;28;20686;-63
2023/09/02 08:30:56;;;;;;;5.83;5.30;;;21.30;99.90;;;;;;5053639;28;20271;-64
2023/09/02 08:33:24;;;;;;;6.93;6.00;;;21.50;99.90;;;;;;5054369;28;20315;-63
2023/09/02 08:35:53;;;;;;;7.50;6.33;;;21.90;99.90;;;;;;5054342;28;20196;-63
2023/09/02 08:38:21;;;;;;;10.37;6.47;;;22.20;99.90;;;;;;5053459;28;20220;-63
2023/09/02 08:40:53;;;;;;;8.83;7.10;;;22.50;99.90;;;;;;5055150;28;20227;-63
2023/09/02 08:43:43;;;;;;;8.37;6.70;;;22.70;99.90;;;;;;5053299;28;20231;-63
2023/09/02 08:46:17;;;;;;;8.80;6.67;;;22.90;99.90;;;;;;5049608;28;20225;-63
2023/09/02 08:48:46;;;;;;;8.50;6.73;;;23.00;99.90;;;;;;5052686;28;20216;-64
2023/09/02 08:51:15;;;;;;;9.47;6.67;;;23.10;99.90;;;;;;5052553;28;20193;-62
2023/09/02 08:53:46;;;;;;;7.37;6.30;;;23.10;99.90;;;;;;5053820;28;20650;-63
2023/09/02 08:56:15;;;;;;;6.37;5.43;;;23.20;99.90;;;;;;5052172;28;20220;-64
2023/09/02 08:58:45;;;;;;;9.37;6.73;;;23.30;99.90;;;;;;5053372;28;20239;-63
2023/09/02 09:01:19;;;;;;;7.47;6.03;;;23.60;99.90;;;;;;5053050;28;20232;-63
2023/09/02 09:03:49;;;;;;;9.70;7.63;;;23.80;99.90;;;;;;5059707;28;20220;-62
2023/09/02 09:06:21;;;;;;;9.27;6.67;;;24.10;99.90;;;;;;5052333;28;20311;-62
2023/09/02 09:08:52;;;;;;;9.37;7.10;;;24.20;99.90;;;;;;5049804;28;20574;-63
2023/09/02 09:11:22;;;;;;;7.80;7.10;;;24.30;99.90;;;;;;5054999;28;20231;-63
2023/09/02 09:13:57;;;;;;;9.07;7.17;;;24.10;99.90;;;;;;5047290;28;20586;-62
2023/09/02 09:16:31;;;;;;;11.83;7.43;;;24.00;99.90;;;;;;5052883;28;20225;-64
2023/09/02 09:18:59;;;;;;;8.00;6.33;;;23.90;99.90;;;;;;5035250;28;20228;-63
2023/09/02 09:21:28;;;;;;;7.53;6.77;;;23.90;99.90;;;;;;5052898;28;20248;-62
2023/09/02 09:23:56;;;;;;;7.00;6.30;;;23.90;99.90;;;;;;5053166;28;20543;-64
2023/09/02 09:26:26;;;;;;;6.37;5.57;;;23.80;99.90;;;;;;5046835;28;20225;-64
2023/09/02 09:28:57;;;;;;;5.70;5.20;;;23.90;99.90;;;;;;5046011;28;20308;-66
2023/09/02 09:31:27;;;;;;;5.38;4.72;;;23.90;99.90;;;;;;5054248;28;20729;-63
2023/09/02 09:33:58;;;;;;;5.10;4.70;;;24.10;99.90;;;;;;5053933;28;20233;-62
2023/09/02 09:36:28;;;;;;;5.03;4.53;;;24.30;99.90;;;;;;5052752;28;20225;-62
2023/09/02 09:38:57;;;;;;;5.63;4.23;;;24.60;99.90;;;;;;5058209;28;20215;-64
2023/09/02 09:41:27;;;;;;;4.93;4.50;;;24.60;99.90;;;;;;5054927;28;20217;-63
2023/09/02 09:44:08;;;;;;;5.15;4.68;;;24.80;99.90;;;;;;5052979;28;20222;-63
2023/09/02 09:46:47;;;;;;;4.20;3.95;;;24.80;99.90;;;;;;5052975;28;20220;-63
2023/09/02 09:49:22;;;;;;;4.30;3.92;;;24.80;99.90;;;;;;5046127;28;20225;-63
2023/09/02 09:51:52;;;;;;;5.55;4.82;;;24.80;99.90;;;;;;5053015;28;20223;-64
2023/09/02 09:54:36;;;;;;;5.28;4.68;;;24.90;99.90;;;;;;5052229;28;20330;-63
2023/09/02 09:57:05;;;;;;;7.47;4.65;;;24.90;99.90;;;;;;5052487;28;20269;-63
2023/09/02 09:59:35;;;;;;;5.32;4.50;;;25.10;99.90;;;;;;5028443;28;20196;-64
2023/09/02 10:02:04;;;;;;;5.03;4.55;;;25.20;99.90;;;;;;5044297;28;20225;-63
2023/09/02 10:04:34;;;;;;;4.93;4.50;;;25.10;99.90;;;;;;5056926;28;20248;-63
2023/09/02 10:07:39;;;;;;;5.97;4.50;;;25.00;99.90;;;;;;5056563;28;20232;-63
2023/09/02 10:10:45;;;;;;;3.88;3.58;;;24.90;99.90;;;;;;5056628;28;20229;-64
2023/09/02 10:13:14;;;;;;;6.18;4.15;;;24.90;99.90;;;;;;5057000;28;20571;-64
2023/09/02 10:15:47;;;;;;;4.00;3.45;;;25.10;99.90;;;;;;5056675;28;20232;-65
2023/09/02 10:18:17;;;;;;;5.18;4.72;;;25.30;99.90;;;;;;5038302;28;20215;-64
2023/09/02 10:20:46;;;;;;;4.45;4.10;;;25.20;99.90;;;;;;5056670;28;20288;-64
2023/09/02 10:23:14;;;;;;;6.18;5.40;;;24.90;99.90;;;;;;5056414;28;20229;-64
2023/09/02 10:25:53;;;;;;;6.20;5.40;;;24.70;99.90;;;;;;5056090;28;20217;-64
2023/09/02 10:28:31;;;;;;;8.37;5.33;;;24.50;99.90;;;;;;5066134;28;20231;-64
2023/09/02 10:31:02;;;;;;;5.20;4.47;;;24.40;99.90;;;;;;5069912;28;20216;-64
2023/09/02 10:33:36;;;;;;;4.57;3.35;;;24.20;99.90;;;;;;5056306;28;20220;-64
2023/09/02 10:36:07;;;;;;;5.40;4.00;;;24.00;99.90;;;;;;5056780;28;20546;-63
2023/09/02 10:38:40;;;;;;;6.13;4.50;;;23.90;99.90;;;;;;5056824;28;20192;-64
2023/09/02 10:41:12;;;;;;;5.10;4.67;;;23.80;99.90;;;;;;5056202;28;20711;-64
2023/09/02 10:43:42;;;;;;;4.77;4.40;;;23.70;99.90;;;;;;5056489;28;20678;-64
2023/09/02 10:46:12;;;;;;;5.23;4.80;;;23.90;99.90;;;;;;5045997;28;20704;-64
2023/09/02 10:48:44;;;;;;;5.00;4.70;;;24.00;99.90;;;;;;5056061;28;20224;-64
2023/09/02 10:51:14;;;;;;;8.63;4.70;;;24.10;99.90;;;;;;5056503;28;20268;-63
2023/09/02 10:54:00;;;;;;;6.07;5.00;;;24.00;99.90;;;;;;5056726;28;20194;-63
2023/09/02 10:56:31;;;;;;;4.67;4.30;;;24.00;99.90;;;;;;5056379;28;20212;-64
2023/09/02 10:59:00;;;;;;;5.40;4.70;;;24.10;99.90;;;;;;5055988;28;20232;-63
2023/09/02 11:01:43;;;;;;;6.67;6.03;;;24.30;99.90;;;;;;5056164;28;20221;-64
2023/09/02 11:04:12;;;;;;;5.23;4.83;;;24.40;99.90;;;;;;5056158;28;20222;-64
2023/09/02 11:07:13;;;;;;;5.47;4.97;;;24.50;99.90;;;;;;5037810;28;20239;-64
2023/09/02 11:09:51;;;;;;;6.90;6.30;;;24.60;99.90;;;;;;5055721;28;20228;-64
2023/09/02 11:12:20;;;;;;;9.57;6.87;;;24.50;99.90;;;;;;5055545;28;20224;-63
2023/09/02 11:15:16;;;;;;;5.77;5.20;;;24.50;99.90;;;;;;5054633;28;20209;-64
2023/09/02 11:17:46;;;;;;;5.87;5.27;;;24.50;99.90;;;;;;5051080;28;20229;-64
2023/09/02 11:20:18;;;;;;;5.37;4.97;;;24.50;99.90;;;;;;5055378;28;20312;-64
2023/09/02 11:22:52;;;;;;;4.87;4.57;;;24.50;99.90;;;;;;5055872;28;20312;-64
2023/09/02 11:25:36;;;;;;;5.10;4.73;;;24.50;99.90;;;;;;5055551;28;20225;-64
2023/09/02 11:28:06;;;;;;;6.67;4.23;;;24.40;99.90;;;;;;5055585;28;20232;-63
2023/09/02 11:30:37;;;;;;;3.00;2.80;;;24.50;99.90;;;;;;5055268;28;20225;-64
2023/09/02 11:33:07;;;;;;;3.45;3.10;;;25.00;99.90;;;;;;5055437;28;20683;-63
2023/09/02 11:35:37;;;;;;;2.95;2.72;;;25.80;99.90;;;;;;5072254;28;20222;-65
2023/09/02 11:38:19;;;;;;;4.53;4.10;;;26.10;99.90;;;;;;5075331;28;20224;-64
2023/09/02 11:40:48;;;;;;;6.50;5.25;;;26.20;99.90;;;;;;5055889;28;20227;-64
2023/09/02 11:43:19;;;;;;;4.30;4.00;;;26.30;99.90;;;;;;5055191;28;20231;-64
2023/09/02 11:45:49;;;;;;;3.50;3.40;;;26.40;99.90;;;;;;5054883;28;20231;-64
2023/09/02 11:48:19;;;;;;;3.85;3.67;;;26.30;99.90;;;;;;5054666;28;20229;-64
2023/09/02 11:50:47;;;;;;;3.17;3.08;;;26.20;99.90;;;;;;5055308;28;20551;-64
2023/09/02 11:53:15;;;;;;;3.30;3.10;;;26.40;99.90;;;;;;5054773;28;20215;-64
2023/09/02 11:55:44;;;;;;;2.80;2.70;;;26.90;99.90;;;;;;5054631;28;20231;-64
2023/09/02 12:01:40;;;;;;;4.20;4.00;;;27.10;99.90;;;;;;5054825;28;20544;-64
2023/09/02 12:04:11;;;;;;;4.53;4.22;;;26.70;99.90;;;;;;5053244;28;20273;-64
2023/09/02 12:06:40;;;;;;;5.32;4.95;;;26.30;99.90;;;;;;5054192;28;20607;-64
2023/09/02 12:09:08;;;;;;;4.00;3.65;;;26.20;99.90;;;;;;5037125;28;20204;-64
2023/09/02 12:11:37;;;;;;;5.68;5.18;;;26.50;99.90;;;;;;5036798;28;20233;-64
2023/09/02 12:14:05;;;;;;;5.75;5.30;;;26.90;99.90;;;;;;5054133;28;20231;-64
2023/09/02 12:16:37;;;;;;;4.88;4.55;;;27.10;99.90;;;;;;5054348;28;20307;-64
2023/09/02 12:19:06;;;;;;;5.55;5.07;;;27.10;99.90;;;;;;5054366;28;20224;-64
2023/09/02 12:21:36;;;;;;;4.82;4.53;;;27.00;99.90;;;;;;5054583;28;20230;-64
2023/09/02 12:24:05;;;;;;;4.35;4.10;;;27.00;99.90;;;;;;5054259;28;20183;-64
2023/09/02 12:26:45;;;;;;;3.78;3.22;;;27.30;99.90;;;;;;5054785;28;20202;-64
2023/09/02 12:29:17;;;;;;;2.33;2.22;;;27.70;99.90;;;;;;5054132;28;20220;-64
2023/09/02 12:31:51;;;;;;;1.90;1.83;;;27.40;99.90;;;;;;5054310;28;20230;-64
2023/09/02 12:34:20;;;;;;;2.95;2.85;;;27.20;99.90;;;;;;5053864;28;20218;-64
2023/09/02 12:36:49;;;;;;;3.17;3.08;;;26.90;99.90;;;;;;5054028;28;20233;-64
2023/09/02 12:39:24;;;;;;;2.97;2.88;;;26.60;99.90;;;;;;5054031;28;20230;-64
2023/09/02 12:41:55;;;;;;;2.97;2.78;;;26.40;99.90;;;;;;5054552;28;20235;-64
2023/09/02 12:44:23;;;;;;;2.70;2.60;;;26.30;99.90;;;;;;5054334;28;20223;-64
2023/09/02 12:46:52;;;;;;;2.63;2.53;;;26.10;99.90;;;;;;5053567;28;20681;-64
2023/09/02 12:49:20;;;;;;;2.47;2.38;;;26.30;99.90;;;;;;5035904;28;20314;-64
2023/09/02 12:51:50;;;;;;;2.60;2.50;;;26.50;99.90;;;;;;5054092;28;20236;-64
2023/09/02 12:54:18;;;;;;;2.67;2.58;;;26.70;99.90;;;;;;5057632;28;20227;-64
2023/09/02 12:56:47;;;;;;;2.08;1.90;;;26.90;99.90;;;;;;5054752;28;20211;-64
2023/09/02 12:59:15;;;;;;;2.13;2.00;;;27.10;99.90;;;;;;5053780;28;20245;-64
2023/09/02 13:01:43;;;;;;;2.00;2.00;;;27.10;99.90;;;;;;5053266;28;20244;-64
2023/09/02 13:04:12;;;;;;;4.45;4.22;;;27.20;99.90;;;;;;5058118;28;20227;-64